Time;durP1;ratioP1;P1;durP2;ratioP2;P2;SDS_P1;SDS_P2;PMS_P1;PMS_P2;Temp;Humidity;BMP_temperature;BMP_pressure;BME280_temperature;BME280_humidity;BME280_pressure;Samples;Min_cycle;Max_cycle;Signal;HPM_P1;HPM_P2
2022/04/12 00:00:19;;;;;;;4.97;1.75;;;;;;;;;;5049988;28;20074;-74
2022/04/12 00:02:45;;;;;;;9.30;1.60;;;;;;;;;;5049936;28;20086;-75
2022/04/12 00:05:11;;;;;;;7.20;2.00;;;;;;;;;;5050430;28;20029;-68
2022/04/12 00:07:41;;;;;;;5.93;1.80;;;;;;;;;;5049929;28;20025;-73
2022/04/12 00:10:08;;;;;;;4.40;1.63;;;;;;;;;;5049747;28;20028;-73
2022/04/12 00:12:34;;;;;;;4.97;1.40;;;;;;;;;;5049633;28;20021;-71
2022/04/12 00:14:59;;;;;;;6.93;1.75;;;;;;;;;;5049838;28;20087;-72
2022/04/12 00:20:09;;;;;;;6.75;1.70;;;;;;;;;;5050138;28;20043;-72
2022/04/12 00:22:35;;;;;;;6.82;1.90;;;;;;;;;;5049645;28;20094;-73
2022/04/12 00:25:01;;;;;;;5.32;1.70;;;;;;;;;;5049882;28;20025;-74
2022/04/12 00:27:27;;;;;;;5.25;1.70;;;;;;;;;;5049508;28;20033;-72
2022/04/12 00:29:53;;;;;;;5.07;1.33;;;;;;;;;;5049455;28;20033;-74
2022/04/12 00:32:19;;;;;;;5.82;1.60;;;;;;;;;;5049859;28;20481;-70
2022/04/12 00:34:44;;;;;;;3.17;1.40;;;;;;;;;;5049529;28;20036;-72
2022/04/12 00:37:10;;;;;;;3.47;1.38;;;;;;;;;;5051569;28;20029;-73
2022/04/12 00:39:37;;;;;;;5.50;1.90;;;;;;;;;;5053536;28;20040;-72
2022/04/12 00:42:06;;;;;;;5.20;1.50;;;;;;;;;;5053685;28;20029;-74
2022/04/12 00:44:31;;;;;;;4.63;1.40;;;;;;;;;;5053310;28;20052;-73
2022/04/12 00:46:56;;;;;;;4.43;1.30;;;;;;;;;;5053140;28;20537;-74
2022/04/12 00:49:25;;;;;;;5.35;1.60;;;;;;;;;;5053546;28;20416;-75
2022/04/12 00:51:52;;;;;;;6.00;1.70;;;;;;;;;;5053688;28;20107;-72
2022/04/12 00:54:19;;;;;;;5.32;1.58;;;;;;;;;;5053083;28;20420;-68
2022/04/12 00:56:47;;;;;;;3.25;1.35;;;;;;;;;;5053403;28;20021;-73
2022/04/12 00:59:13;;;;;;;3.28;1.15;;;;;;;;;;5053400;28;20025;-73
2022/04/12 01:01:38;;;;;;;2.95;1.50;;;;;;;;;;5053245;28;20021;-72
2022/04/12 01:04:04;;;;;;;5.07;1.40;;;;;;;;;;5052995;28;20056;-72
2022/04/12 01:06:30;;;;;;;4.75;1.50;;;;;;;;;;5053445;28;20021;-72
2022/04/12 01:08:55;;;;;;;3.33;1.20;;;;;;;;;;5052868;28;20041;-72
2022/04/12 01:11:21;;;;;;;4.85;1.30;;;;;;;;;;5052972;28;20021;-74
2022/04/12 01:13:46;;;;;;;5.43;1.58;;;;;;;;;;5052965;28;20025;-72
2022/04/12 01:16:12;;;;;;;7.00;1.50;;;;;;;;;;5053064;28;20488;-72
2022/04/12 01:18:38;;;;;;;3.90;1.50;;;;;;;;;;5052830;28;20116;-73
2022/04/12 01:21:04;;;;;;;5.85;1.45;;;;;;;;;;5052763;28;20032;-74
2022/04/12 01:23:41;;;;;;;6.50;1.60;;;;;;;;;;5052416;28;20059;-75
2022/04/12 01:26:07;;;;;;;4.50;1.40;;;;;;;;;;5052915;28;20029;-71
2022/04/12 01:28:33;;;;;;;4.07;1.27;;;;;;;;;;5052986;28;20032;-74
2022/04/12 01:30:58;;;;;;;5.82;1.48;;;;;;;;;;5052728;28;20078;-74
2022/04/12 01:33:24;;;;;;;3.78;1.30;;;;;;;;;;5052307;28;20110;-76
2022/04/12 01:35:49;;;;;;;3.80;1.20;;;;;;;;;;5052529;28;20031;-73
2022/04/12 01:38:14;;;;;;;3.10;1.10;;;;;;;;;;5052334;28;20021;-70
2022/04/12 01:40:40;;;;;;;3.55;1.38;;;;;;;;;;5052401;28;20021;-73
2022/04/12 01:43:05;;;;;;;3.10;1.20;;;;;;;;;;5052159;28;20151;-73
2022/04/12 01:45:31;;;;;;;5.13;1.20;;;;;;;;;;5052315;28;20383;-73
2022/04/12 01:47:56;;;;;;;5.15;1.25;;;;;;;;;;5051510;28;20479;-74
2022/04/12 01:50:22;;;;;;;5.25;1.23;;;;;;;;;;5052332;28;20048;-73
2022/04/12 01:52:47;;;;;;;4.13;1.30;;;;;;;;;;5052348;28;20045;-72
2022/04/12 01:55:14;;;;;;;5.20;1.63;;;;;;;;;;5052187;28;20025;-72
2022/04/12 01:57:39;;;;;;;3.25;1.20;;;;;;;;;;5052219;28;20029;-72
2022/04/12 02:00:07;;;;;;;5.32;1.45;;;;;;;;;;5052630;28;20028;-74
2022/04/12 02:02:33;;;;;;;2.42;1.02;;;;;;;;;;5052243;28;20029;-74
2022/04/12 02:04:59;;;;;;;3.15;1.20;;;;;;;;;;5052653;28;20033;-73
2022/04/12 02:07:24;;;;;;;3.75;1.20;;;;;;;;;;5034573;28;20025;-73
2022/04/12 02:09:49;;;;;;;4.88;1.38;;;;;;;;;;5052027;28;20082;-73
2022/04/12 02:12:15;;;;;;;4.05;1.10;;;;;;;;;;5052749;28;20555;-73
2022/04/12 02:14:41;;;;;;;3.40;1.10;;;;;;;;;;5052084;28;20025;-75
2022/04/12 02:17:06;;;;;;;6.32;1.40;;;;;;;;;;5052067;28;20025;-73
2022/04/12 02:19:32;;;;;;;4.38;1.48;;;;;;;;;;5051863;28;20075;-73
2022/04/12 02:21:57;;;;;;;4.72;1.10;;;;;;;;;;5052751;28;20025;-74
2022/04/12 02:24:22;;;;;;;3.15;1.25;;;;;;;;;;5052089;28;20079;-75
2022/04/12 02:26:48;;;;;;;1.85;1.10;;;;;;;;;;5051700;28;20021;-75
2022/04/12 02:29:13;;;;;;;4.68;1.42;;;;;;;;;;5051720;28;20024;-74
2022/04/12 02:31:42;;;;;;;2.67;1.23;;;;;;;;;;5051831;28;20484;-74
2022/04/12 02:34:09;;;;;;;4.72;1.20;;;;;;;;;;5051331;28;20056;-74
2022/04/12 02:36:34;;;;;;;4.05;1.30;;;;;;;;;;5033603;28;20408;-74
2022/04/12 02:38:59;;;;;;;5.50;1.23;;;;;;;;;;5051074;28;20535;-73
2022/04/12 02:41:25;;;;;;;4.60;1.30;;;;;;;;;;5051568;28;20035;-72
2022/04/12 02:43:50;;;;;;;5.47;1.13;;;;;;;;;;5051295;28;20028;-73
2022/04/12 02:46:16;;;;;;;3.08;1.25;;;;;;;;;;5051097;28;20028;-73
2022/04/12 02:48:41;;;;;;;3.25;1.30;;;;;;;;;;5051283;28;20029;-74
2022/04/12 02:51:07;;;;;;;4.03;1.20;;;;;;;;;;5051316;28;20447;-75
2022/04/12 02:53:32;;;;;;;4.65;1.10;;;;;;;;;;5050673;28;20032;-74
2022/04/12 02:55:58;;;;;;;5.68;1.15;;;;;;;;;;5051100;28;20107;-74
2022/04/12 02:58:23;;;;;;;6.25;1.20;;;;;;;;;;5050942;28;20029;-72
2022/04/12 03:00:48;;;;;;;9.25;1.23;;;;;;;;;;5032956;28;20028;-74
2022/04/12 03:03:14;;;;;;;4.22;1.00;;;;;;;;;;5051309;28;20475;-73
2022/04/12 03:05:39;;;;;;;5.00;1.42;;;;;;;;;;5050894;28;20028;-75
2022/04/12 03:08:05;;;;;;;4.57;1.27;;;;;;;;;;5050803;28;20439;-74
2022/04/12 03:10:30;;;;;;;3.63;1.17;;;;;;;;;;5050847;28;20028;-74
2022/04/12 03:12:56;;;;;;;4.35;1.08;;;;;;;;;;5051024;28;20048;-74
2022/04/12 03:15:21;;;;;;;4.22;1.10;;;;;;;;;;5050548;28;20025;-74
2022/04/12 03:17:47;;;;;;;2.72;1.00;;;;;;;;;;5050571;28;20031;-73
2022/04/12 03:20:12;;;;;;;3.90;1.10;;;;;;;;;;5050719;28;20052;-74
2022/04/12 03:22:38;;;;;;;5.20;1.30;;;;;;;;;;5050474;28;20017;-75
2022/04/12 03:25:03;;;;;;;3.53;1.17;;;;;;;;;;5050487;28;20032;-75
2022/04/12 03:27:29;;;;;;;5.88;1.33;;;;;;;;;;5050343;28;20075;-75
2022/04/12 03:29:54;;;;;;;3.15;1.10;;;;;;;;;;5050661;28;20021;-74
2022/04/12 03:32:20;;;;;;;3.28;1.00;;;;;;;;;;5050405;28;20075;-75
2022/04/12 03:34:46;;;;;;;2.75;1.00;;;;;;;;;;5050027;28;20075;-68
2022/04/12 03:37:14;;;;;;;3.58;1.13;;;;;;;;;;5050347;28;20060;-71
2022/04/12 03:39:40;;;;;;;6.18;1.40;;;;;;;;;;5050329;28;20051;-73
2022/04/12 03:42:11;;;;;;;3.45;1.20;;;;;;;;;;5050476;28;20096;-73
2022/04/12 03:44:36;;;;;;;3.75;1.13;;;;;;;;;;5050087;28;20404;-72
2022/04/12 03:47:02;;;;;;;4.28;1.20;;;;;;;;;;5050006;28;20052;-70
2022/04/12 03:49:27;;;;;;;3.63;1.20;;;;;;;;;;5050153;28;20112;-69
2022/04/12 03:51:52;;;;;;;4.10;1.05;;;;;;;;;;5050057;28;20025;-72
2022/04/12 03:54:18;;;;;;;6.07;1.10;;;;;;;;;;5049834;28;20071;-73
2022/04/12 03:56:43;;;;;;;5.22;1.00;;;;;;;;;;5050227;28;20090;-69
2022/04/12 03:59:09;;;;;;;4.68;1.10;;;;;;;;;;5050123;28;20056;-71
2022/04/12 04:01:35;;;;;;;4.38;1.30;;;;;;;;;;5049986;28;20504;-72
2022/04/12 04:04:00;;;;;;;6.97;1.10;;;;;;;;;;5049789;28;20025;-74
2022/04/12 04:06:26;;;;;;;5.20;1.23;;;;;;;;;;5049801;28;20025;-69
2022/04/12 04:08:51;;;;;;;4.30;1.20;;;;;;;;;;5049870;28;20397;-73
2022/04/12 04:11:17;;;;;;;11.18;1.95;;;;;;;;;;5049768;28;20396;-75
2022/04/12 04:13:42;;;;;;;5.38;1.27;;;;;;;;;;5050180;28;20018;-72
2022/04/12 04:16:08;;;;;;;4.47;1.23;;;;;;;;;;5049731;28;20025;-71
2022/04/12 04:18:34;;;;;;;6.68;1.30;;;;;;;;;;5049771;28;20031;-74
2022/04/12 04:20:59;;;;;;;3.45;1.00;;;;;;;;;;5050104;28;20119;-73
2022/04/12 04:23:25;;;;;;;6.40;1.20;;;;;;;;;;5049445;28;20025;-73
2022/04/12 04:25:50;;;;;;;3.13;1.10;;;;;;;;;;5049458;28;20032;-74
2022/04/12 04:28:21;;;;;;;2.75;1.20;;;;;;;;;;5049931;28;20086;-74
2022/04/12 04:30:50;;;;;;;2.70;1.20;;;;;;;;;;5049816;28;20021;-73
2022/04/12 04:33:19;;;;;;;2.80;1.17;;;;;;;;;;5049554;28;20033;-72
2022/04/12 04:35:46;;;;;;;3.72;1.20;;;;;;;;;;5049611;28;20044;-72
2022/04/12 04:38:12;;;;;;;6.28;1.55;;;;;;;;;;5049387;28;20036;-73
2022/04/12 04:40:37;;;;;;;4.70;1.33;;;;;;;;;;5049399;28;20021;-73
2022/04/12 04:43:03;;;;;;;4.57;1.30;;;;;;;;;;5049352;28;20029;-73
2022/04/12 04:45:29;;;;;;;4.85;1.30;;;;;;;;;;5049415;28;20052;-73
2022/04/12 04:47:56;;;;;;;3.85;1.30;;;;;;;;;;5049255;28;20053;-73
2022/04/12 04:50:23;;;;;;;5.43;1.40;;;;;;;;;;5049554;28;20120;-74
2022/04/12 04:52:49;;;;;;;3.63;1.17;;;;;;;;;;5049654;28;20040;-72
2022/04/12 04:55:16;;;;;;;2.88;1.17;;;;;;;;;;5049446;28;20029;-74
2022/04/12 04:57:42;;;;;;;5.28;1.33;;;;;;;;;;5049543;28;20025;-74
2022/04/12 05:00:15;;;;;;;3.75;1.20;;;;;;;;;;5049355;28;20451;-74
2022/04/12 05:02:44;;;;;;;10.13;1.58;;;;;;;;;;5049251;28;20025;-72
2022/04/12 05:05:10;;;;;;;5.90;1.30;;;;;;;;;;5049199;28;20021;-75
2022/04/12 05:07:41;;;;;;;5.60;1.30;;;;;;;;;;5049453;28;20180;-72
2022/04/12 05:10:08;;;;;;;12.50;1.77;;;;;;;;;;5049429;28;20098;-75
2022/04/12 05:12:34;;;;;;;14.82;1.50;;;;;;;;;;5049137;28;20400;-75
2022/04/12 05:14:59;;;;;;;11.05;2.13;;;;;;;;;;5049065;28;20059;-74
2022/04/12 05:17:27;;;;;;;9.55;2.25;;;;;;;;;;5049259;28;20096;-73
2022/04/12 05:19:53;;;;;;;5.60;1.70;;;;;;;;;;5048908;28;20550;-73
2022/04/12 05:22:18;;;;;;;5.88;1.75;;;;;;;;;;5049170;28;20035;-74
2022/04/12 05:24:45;;;;;;;3.20;1.05;;;;;;;;;;5051477;28;20104;-75
2022/04/12 05:27:11;;;;;;;4.40;1.00;;;;;;;;;;5052851;28;20021;-75
2022/04/12 05:29:37;;;;;;;11.60;2.65;;;;;;;;;;5052695;28;20021;-74
2022/04/12 05:32:03;;;;;;;3.67;1.25;;;;;;;;;;5052933;28;20021;-74
2022/04/12 05:34:28;;;;;;;6.13;1.50;;;;;;;;;;5052497;28;20048;-74
2022/04/12 05:36:53;;;;;;;8.63;1.13;;;;;;;;;;5052503;28;20029;-73
2022/04/12 05:39:19;;;;;;;3.60;1.10;;;;;;;;;;5052204;28;20025;-71
2022/04/12 05:41:44;;;;;;;3.92;1.05;;;;;;;;;;5052452;28;20377;-72
2022/04/12 05:44:10;;;;;;;5.18;1.08;;;;;;;;;;5052333;28;20030;-75
2022/04/12 05:46:35;;;;;;;7.78;1.27;;;;;;;;;;5052033;28;20090;-72
2022/04/12 05:49:01;;;;;;;5.30;1.25;;;;;;;;;;5052590;28;20027;-73
2022/04/12 05:51:26;;;;;;;6.68;1.38;;;;;;;;;;5052465;28;20273;-73
2022/04/12 05:53:51;;;;;;;3.13;1.20;;;;;;;;;;5051960;28;20071;-74
2022/04/12 05:56:17;;;;;;;5.03;1.35;;;;;;;;;;5051938;28;20045;-74
2022/04/12 05:58:43;;;;;;;6.30;1.40;;;;;;;;;;5051830;28;20058;-74
2022/04/12 06:01:08;;;;;;;7.45;1.45;;;;;;;;;;5052001;28;20029;-74
2022/04/12 06:03:34;;;;;;;7.45;1.35;;;;;;;;;;5052240;28;20517;-73
2022/04/12 06:05:59;;;;;;;3.92;1.30;;;;;;;;;;5052050;28;20021;-74
2022/04/12 06:08:24;;;;;;;6.60;1.40;;;;;;;;;;5051878;28;20025;-73
2022/04/12 06:10:50;;;;;;;3.60;1.15;;;;;;;;;;5051680;28;20029;-74
2022/04/12 06:13:15;;;;;;;5.47;1.15;;;;;;;;;;5051699;28;20112;-74
2022/04/12 06:15:41;;;;;;;3.63;1.25;;;;;;;;;;5051623;28;20017;-74
2022/04/12 06:18:07;;;;;;;4.50;1.30;;;;;;;;;;5051912;28;20108;-75
2022/04/12 06:20:33;;;;;;;3.85;1.10;;;;;;;;;;5051961;28;20032;-74
2022/04/12 06:22:58;;;;;;;18.25;2.13;;;;;;;;;;5051743;28;20024;-73
2022/04/12 06:25:24;;;;;;;9.35;1.67;;;;;;;;;;5051407;28;20053;-74
2022/04/12 06:27:51;;;;;;;3.78;1.20;;;;;;;;;;5051492;28;20425;-74
2022/04/12 06:30:19;;;;;;;6.85;1.17;;;;;;;;;;5051634;28;20040;-75
2022/04/12 06:32:45;;;;;;;6.45;1.42;;;;;;;;;;5051494;28;20025;-76
2022/04/12 06:35:12;;;;;;;6.78;1.35;;;;;;;;;;5050887;28;20031;-73
2022/04/12 06:37:39;;;;;;;7.47;1.30;;;;;;;;;;5051397;28;20020;-75
2022/04/12 06:40:06;;;;;;;5.80;1.20;;;;;;;;;;5051452;28;20083;-75
2022/04/12 06:42:32;;;;;;;9.32;1.70;;;;;;;;;;5051142;28;20036;-74
2022/04/12 06:44:57;;;;;;;9.95;1.80;;;;;;;;;;5051078;28;20024;-73
2022/04/12 06:47:23;;;;;;;6.85;1.60;;;;;;;;;;5050886;28;20055;-74
2022/04/12 06:49:50;;;;;;;10.27;1.65;;;;;;;;;;5051033;28;20030;-73
2022/04/12 06:52:17;;;;;;;4.97;1.40;;;;;;;;;;5051063;28;20021;-74
2022/04/12 06:54:43;;;;;;;6.43;1.75;;;;;;;;;;5050959;28;20024;-74
2022/04/12 06:57:09;;;;;;;5.40;1.60;;;;;;;;;;5051058;28;20033;-75
2022/04/12 06:59:35;;;;;;;5.85;1.50;;;;;;;;;;5050922;28;20582;-75
2022/04/12 07:02:04;;;;;;;8.70;1.67;;;;;;;;;;5051092;28;20040;-74
2022/04/12 07:04:30;;;;;;;8.05;1.40;;;;;;;;;;5050987;28;20033;-70
2022/04/12 07:06:56;;;;;;;6.45;1.33;;;;;;;;;;5050659;28;20518;-68
2022/04/12 07:09:27;;;;;;;9.15;1.70;;;;;;;;;;5050731;28;20032;-73
2022/04/12 07:11:54;;;;;;;7.85;2.00;;;;;;;;;;5050800;28;20228;-73
2022/04/12 07:14:19;;;;;;;9.15;1.90;;;;;;;;;;5050816;28;20036;-72
2022/04/12 07:16:45;;;;;;;6.75;1.52;;;;;;;;;;5050725;28;20031;-72
2022/04/12 07:19:10;;;;;;;6.63;1.58;;;;;;;;;;5050650;28;20500;-73
2022/04/12 07:21:36;;;;;;;11.23;1.85;;;;;;;;;;5050925;28;20032;-74
2022/04/12 07:24:04;;;;;;;7.68;1.40;;;;;;;;;;5050354;28;20017;-73
2022/04/12 07:26:31;;;;;;;8.45;1.70;;;;;;;;;;5050196;28;20033;-72
2022/04/12 07:28:57;;;;;;;9.60;2.00;;;;;;;;;;5050625;28;20025;-72
2022/04/12 07:31:23;;;;;;;6.88;1.60;;;;;;;;;;5050815;28;20079;-74
2022/04/12 07:33:48;;;;;;;9.35;1.80;;;;;;;;;;5050429;28;20134;-74
2022/04/12 07:36:17;;;;;;;6.63;1.67;;;;;;;;;;5050347;28;20025;-74
2022/04/12 07:38:43;;;;;;;12.02;1.65;;;;;;;;;;5050048;28;20020;-72
2022/04/12 07:41:09;;;;;;;7.53;1.63;;;;;;;;;;5050212;28;20408;-72
2022/04/12 07:43:35;;;;;;;7.00;1.63;;;;;;;;;;5050260;28;20483;-72
2022/04/12 07:46:01;;;;;;;10.55;1.70;;;;;;;;;;5049232;28;20032;-70
2022/04/12 07:48:26;;;;;;;11.57;1.70;;;;;;;;;;5050278;28;20253;-71
2022/04/12 07:50:52;;;;;;;7.75;1.60;;;;;;;;;;5050299;28;20052;-73
2022/04/12 07:53:18;;;;;;;8.73;1.80;;;;;;;;;;5050102;28;20025;-73
2022/04/12 07:55:43;;;;;;;10.02;1.90;;;;;;;;;;5049864;28;20496;-72
2022/04/12 07:58:08;;;;;;;7.15;1.50;;;;;;;;;;5049944;28;20051;-75
2022/04/12 08:00:34;;;;;;;10.70;1.70;;;;;;;;;;5050043;28;20060;-71
2022/04/12 08:02:59;;;;;;;9.85;1.50;;;;;;;;;;5049830;28;20392;-72
2022/04/12 08:05:25;;;;;;;11.70;1.55;;;;;;;;;;5049881;28;20021;-72
2022/04/12 08:07:50;;;;;;;10.30;1.65;;;;;;;;;;5049895;28;20505;-72
2022/04/12 08:10:17;;;;;;;8.38;1.75;;;;;;;;;;5049899;28;20381;-72
2022/04/12 08:12:44;;;;;;;7.53;1.50;;;;;;;;;;5049937;28;20029;-72
2022/04/12 08:15:11;;;;;;;8.82;1.40;;;;;;;;;;5049667;28;20096;-72
2022/04/12 08:17:36;;;;;;;7.97;1.50;;;;;;;;;;5049689;28;20565;-73
2022/04/12 08:20:03;;;;;;;7.07;1.35;;;;;;;;;;5049753;28;20580;-72
2022/04/12 08:22:28;;;;;;;10.48;1.60;;;;;;;;;;5049621;28;20112;-73
2022/04/12 08:24:54;;;;;;;8.45;1.60;;;;;;;;;;5049725;28;20104;-74
2022/04/12 08:27:19;;;;;;;5.97;1.50;;;;;;;;;;5049798;28;20124;-73
2022/04/12 08:29:46;;;;;;;5.07;1.52;;;;;;;;;;5050104;28;20273;-73
2022/04/12 08:32:11;;;;;;;8.55;1.55;;;;;;;;;;5049668;28;20033;-72
2022/04/12 08:34:37;;;;;;;8.32;1.60;;;;;;;;;;5049459;28;20053;-70
2022/04/12 08:37:05;;;;;;;8.57;1.60;;;;;;;;;;5049842;28;20029;-73
2022/04/12 08:39:31;;;;;;;8.52;1.50;;;;;;;;;;5049598;28;20056;-73
2022/04/12 08:41:58;;;;;;;11.18;1.40;;;;;;;;;;5049941;28;20495;-73
2022/04/12 08:44:24;;;;;;;10.35;1.98;;;;;;;;;;5049818;28;20021;-73
2022/04/12 08:46:50;;;;;;;9.63;1.50;;;;;;;;;;5049449;28;20052;-72
2022/04/12 08:49:16;;;;;;;8.50;1.80;;;;;;;;;;5049514;28;20025;-72
2022/04/12 08:51:42;;;;;;;14.13;1.73;;;;;;;;;;5049385;28;20057;-72
2022/04/12 08:54:09;;;;;;;9.02;1.90;;;;;;;;;;5049187;28;20029;-72
2022/04/12 08:56:35;;;;;;;6.80;1.45;;;;;;;;;;5049244;28;20100;-73
2022/04/12 08:59:00;;;;;;;8.35;1.40;;;;;;;;;;5052268;28;20116;-69
2022/04/12 09:01:25;;;;;;;6.97;1.50;;;;;;;;;;5053229;28;20473;-73
2022/04/12 09:03:51;;;;;;;9.95;1.50;;;;;;;;;;5053282;28;20021;-72
2022/04/12 09:06:16;;;;;;;4.43;1.30;;;;;;;;;;5053317;28;20454;-69
2022/04/12 09:08:42;;;;;;;6.72;1.30;;;;;;;;;;5053042;28;20028;-70
2022/04/12 09:11:08;;;;;;;6.57;1.30;;;;;;;;;;5052983;28;20017;-74
2022/04/12 09:13:35;;;;;;;8.60;1.58;;;;;;;;;;5052856;28;20033;-74
2022/04/12 09:16:01;;;;;;;8.23;1.55;;;;;;;;;;5052850;28;20021;-71
2022/04/12 09:18:53;;;;;;;8.13;1.40;;;;;;;;;;5052912;28;20377;-73
2022/04/12 09:21:21;;;;;;;6.65;1.45;;;;;;;;;;5047987;28;20047;-73
2022/04/12 09:23:52;;;;;;;4.03;1.30;;;;;;;;;;5052706;28;20070;-68
2022/04/12 09:26:33;;;;;;;6.55;1.52;;;;;;;;;;5052443;28;20033;-74
2022/04/12 09:29:02;;;;;;;6.40;1.58;;;;;;;;;;5052673;28;20412;-68
2022/04/12 09:31:28;;;;;;;8.48;1.25;;;;;;;;;;5052559;28;20057;-68
2022/04/12 09:33:54;;;;;;;10.52;1.58;;;;;;;;;;5052573;28;20056;-71
2022/04/12 09:36:21;;;;;;;11.10;1.65;;;;;;;;;;5052326;28;20036;-68
2022/04/12 09:38:54;;;;;;;7.22;1.83;;;;;;;;;;5052867;28;20032;-73
2022/04/12 09:41:23;;;;;;;4.90;1.27;;;;;;;;;;5052443;28;20530;-71
2022/04/12 09:43:54;;;;;;;7.07;1.55;;;;;;;;;;5053296;28;20503;-74
2022/04/12 09:46:20;;;;;;;7.10;1.67;;;;;;;;;;5052255;28;20064;-73
2022/04/12 09:48:47;;;;;;;6.15;1.50;;;;;;;;;;5052382;28;20036;-75
2022/04/12 09:51:13;;;;;;;9.05;1.50;;;;;;;;;;5052551;28;20021;-74
2022/04/12 09:53:40;;;;;;;10.45;1.48;;;;;;;;;;5052318;28;20294;-73
2022/04/12 09:56:23;;;;;;;13.65;1.95;;;;;;;;;;5052124;28;20033;-75
2022/04/12 09:58:51;;;;;;;12.25;2.00;;;;;;;;;;5034402;28;20029;-74
2022/04/12 10:01:17;;;;;;;9.02;1.50;;;;;;;;;;5052076;28;20151;-72
2022/04/12 10:03:45;;;;;;;8.75;1.60;;;;;;;;;;5051750;28;20481;-73
2022/04/12 10:06:13;;;;;;;7.40;1.40;;;;;;;;;;5051930;28;20118;-73
2022/04/12 10:08:39;;;;;;;8.93;1.70;;;;;;;;;;5051613;28;20028;-73
2022/04/12 10:11:07;;;;;;;8.70;1.42;;;;;;;;;;5051454;28;20020;-73
2022/04/12 10:13:33;;;;;;;9.98;1.70;;;;;;;;;;5052211;28;20033;-75
2022/04/12 10:15:59;;;;;;;6.90;1.60;;;;;;;;;;5051817;28;20028;-74
2022/04/12 10:18:25;;;;;;;9.43;1.60;;;;;;;;;;5051664;28;20086;-75
2022/04/12 10:20:51;;;;;;;7.35;1.50;;;;;;;;;;5051816;28;20075;-74
2022/04/12 10:23:22;;;;;;;10.43;1.77;;;;;;;;;;5051379;28;20481;-73
2022/04/12 10:25:50;;;;;;;11.05;1.67;;;;;;;;;;5051690;28;20044;-71
2022/04/12 10:28:17;;;;;;;8.32;1.67;;;;;;;;;;5051787;28;20032;-72
2022/04/12 10:30:44;;;;;;;12.30;2.03;;;;;;;;;;5051693;28;20049;-75
2022/04/12 10:33:18;;;;;;;10.32;1.83;;;;;;;;;;5051602;28;20083;-74
2022/04/12 10:35:44;;;;;;;9.32;1.85;;;;;;;;;;5051565;28;20051;-75
2022/04/12 10:38:13;;;;;;;9.57;1.50;;;;;;;;;;5050969;28;20163;-69
2022/04/12 10:40:46;;;;;;;11.25;1.83;;;;;;;;;;5051711;28;20024;-70
2022/04/12 10:43:20;;;;;;;10.85;1.70;;;;;;;;;;5051337;28;20358;-73
2022/04/12 10:45:49;;;;;;;12.25;1.55;;;;;;;;;;5051303;28;20452;-73
2022/04/12 10:48:19;;;;;;;7.38;1.25;;;;;;;;;;5051062;28;20048;-71
2022/04/12 10:50:46;;;;;;;8.32;1.42;;;;;;;;;;5051587;28;20110;-69
2022/04/12 10:53:12;;;;;;;9.00;1.17;;;;;;;;;;5051334;28;20068;-72
2022/04/12 10:55:43;;;;;;;9.68;1.52;;;;;;;;;;5050941;28;20730;-73
2022/04/12 10:58:12;;;;;;;14.10;1.70;;;;;;;;;;5050764;28;20491;-73
2022/04/12 11:00:43;;;;;;;9.30;1.50;;;;;;;;;;5050705;28;20485;-70
2022/04/12 11:03:09;;;;;;;12.27;1.60;;;;;;;;;;5050929;28;20044;-71
2022/04/12 11:05:42;;;;;;;12.10;1.75;;;;;;;;;;5051107;28;20043;-71
2022/04/12 11:08:46;;;;;;;9.90;1.75;;;;;;;;;;5050648;28;20492;-71
2022/04/12 11:11:16;;;;;;;9.32;1.55;;;;;;;;;;5050755;28;20020;-71
2022/04/12 11:13:42;;;;;;;10.50;2.00;;;;;;;;;;5050785;28;20029;-72
2022/04/12 11:16:09;;;;;;;9.25;2.00;;;;;;;;;;5050805;28;20036;-73
2022/04/12 11:18:54;;;;;;;7.07;1.63;;;;;;;;;;5050338;28;20061;-73
2022/04/12 11:21:49;;;;;;;10.70;1.65;;;;;;;;;;5050660;28;20043;-74
2022/04/12 11:24:15;;;;;;;10.48;1.50;;;;;;;;;;5039693;28;20536;-70
2022/04/12 11:26:46;;;;;;;11.05;1.73;;;;;;;;;;5050593;28;20164;-72
2022/04/12 11:29:17;;;;;;;8.63;1.65;;;;;;;;;;5050460;28;20576;-73
2022/04/12 11:31:47;;;;;;;10.27;1.67;;;;;;;;;;5050434;28;20029;-72
2022/04/12 11:34:16;;;;;;;5.60;1.40;;;;;;;;;;5050370;28;20430;-74
2022/04/12 11:36:50;;;;;;;7.47;1.70;;;;;;;;;;5050347;28;20464;-73
2022/04/12 11:39:20;;;;;;;13.73;1.88;;;;;;;;;;5049992;28;20037;-73
2022/04/12 11:41:45;;;;;;;8.05;1.30;;;;;;;;;;5050389;28;20080;-73
2022/04/12 11:44:11;;;;;;;12.40;1.92;;;;;;;;;;5050405;28;20453;-70
2022/04/12 11:46:39;;;;;;;9.15;1.60;;;;;;;;;;5049848;28;20175;-69
2022/04/12 11:49:06;;;;;;;8.68;1.65;;;;;;;;;;5032297;28;20497;-71
2022/04/12 11:51:40;;;;;;;9.98;1.80;;;;;;;;;;5050113;28;20048;-72
2022/04/12 11:54:24;;;;;;;10.85;1.55;;;;;;;;;;5049901;28;20021;-73
2022/04/12 11:57:00;;;;;;;7.60;1.40;;;;;;;;;;5049896;28;20033;-68
2022/04/12 11:59:26;;;;;;;10.48;1.50;;;;;;;;;;5050011;28;20025;-72
2022/04/12 12:01:53;;;;;;;10.85;1.92;;;;;;;;;;5032110;28;20090;-73
2022/04/12 12:04:19;;;;;;;12.48;2.13;;;;;;;;;;5050342;28;20105;-73
2022/04/12 12:07:07;;;;;;;9.05;1.63;;;;;;;;;;5049934;28;20021;-73
2022/04/12 12:09:36;;;;;;;13.13;1.45;;;;;;;;;;5049696;28;20240;-74
2022/04/12 12:12:07;;;;;;;10.68;1.73;;;;;;;;;;5049631;28;20079;-69
2022/04/12 12:14:34;;;;;;;9.20;1.80;;;;;;;;;;5049805;28;20166;-72
2022/04/12 12:17:10;;;;;;;7.65;1.45;;;;;;;;;;5049724;28;20036;-72
2022/04/12 12:19:40;;;;;;;9.57;1.73;;;;;;;;;;5049854;28;20428;-70
2022/04/12 12:22:10;;;;;;;12.95;1.85;;;;;;;;;;5049767;28;20033;-71
2022/04/12 12:24:50;;;;;;;14.23;1.88;;;;;;;;;;5031854;28;20040;-71
2022/04/12 12:27:45;;;;;;;11.73;1.87;;;;;;;;;;5031762;28;20488;-73
2022/04/12 12:30:15;;;;;;;15.02;1.83;;;;;;;;;;5034913;28;20045;-71
2022/04/12 12:32:42;;;;;;;7.82;1.60;;;;;;;;;;5050718;28;20523;-71
2022/04/12 12:35:10;;;;;;;11.27;1.67;;;;;;;;;;5054004;28;20059;-69
2022/04/12 12:37:37;;;;;;;8.40;1.67;;;;;;;;;;5053493;28;20025;-71
2022/04/12 12:40:15;;;;;;;8.73;2.05;;;;;;;;;;5053825;28;20029;-73
2022/04/12 12:42:40;;;;;;;7.82;1.58;;;;;;;;;;5053629;28;20029;-67
2022/04/12 12:45:14;;;;;;;10.32;1.80;;;;;;;;;;5053506;28;20051;-74
2022/04/12 12:47:41;;;;;;;8.55;1.88;;;;;;;;;;5053080;28;20037;-73
2022/04/12 12:50:09;;;;;;;10.82;1.60;;;;;;;;;;5053370;28;20181;-72
2022/04/12 12:52:35;;;;;;;9.25;1.75;;;;;;;;;;5053706;28;20464;-68
2022/04/12 12:55:00;;;;;;;7.55;1.88;;;;;;;;;;5053483;28;20035;-71
2022/04/12 12:57:36;;;;;;;11.40;2.08;;;;;;;;;;5053300;28;20488;-72
2022/04/12 13:00:05;;;;;;;6.82;1.33;;;;;;;;;;5053241;28;20025;-73
2022/04/12 13:02:33;;;;;;;9.07;1.75;;;;;;;;;;5053438;28;20025;-67
2022/04/12 13:05:03;;;;;;;12.40;1.40;;;;;;;;;;5053380;28;20013;-73
2022/04/12 13:07:34;;;;;;;14.63;1.92;;;;;;;;;;5052737;28;20028;-71
2022/04/12 13:10:11;;;;;;;8.23;1.65;;;;;;;;;;5053020;28;20035;-74
2022/04/12 13:12:37;;;;;;;9.95;1.52;;;;;;;;;;5053222;28;20021;-70
2022/04/12 13:15:05;;;;;;;7.03;1.50;;;;;;;;;;5053341;28;20469;-73
2022/04/12 13:17:30;;;;;;;8.63;1.60;;;;;;;;;;5052846;28;20126;-72
2022/04/12 13:19:57;;;;;;;7.43;1.70;;;;;;;;;;5053302;28;20075;-74
2022/04/12 13:22:24;;;;;;;8.95;1.67;;;;;;;;;;5052737;28;20122;-68
2022/04/12 13:24:49;;;;;;;11.10;1.75;;;;;;;;;;5052735;28;20028;-75
2022/04/12 13:27:15;;;;;;;9.77;1.60;;;;;;;;;;5052625;28;20021;-73
2022/04/12 13:29:40;;;;;;;9.32;1.50;;;;;;;;;;5052777;28;20472;-73
2022/04/12 13:32:06;;;;;;;8.95;1.75;;;;;;;;;;5053052;28;20052;-72
2022/04/12 13:34:32;;;;;;;7.75;1.67;;;;;;;;;;5054515;28;20052;-74
2022/04/12 13:36:57;;;;;;;9.93;1.75;;;;;;;;;;5052539;28;20029;-73
2022/04/12 13:39:22;;;;;;;13.55;1.45;;;;;;;;;;5051994;28;20480;-74
2022/04/12 13:41:49;;;;;;;6.65;1.50;;;;;;;;;;5052366;28;20048;-71
2022/04/12 13:44:14;;;;;;;8.80;1.60;;;;;;;;;;5051038;28;20109;-75
2022/04/12 13:46:40;;;;;;;13.30;2.15;;;;;;;;;;5052096;28;20051;-71
2022/04/12 13:49:05;;;;;;;9.13;1.83;;;;;;;;;;5052065;28;20033;-72
2022/04/12 13:51:31;;;;;;;9.52;1.40;;;;;;;;;;5052400;28;20108;-69
2022/04/12 13:53:57;;;;;;;8.00;1.67;;;;;;;;;;5052313;28;20033;-73
2022/04/12 13:56:23;;;;;;;8.10;1.70;;;;;;;;;;5052335;28;20472;-73
2022/04/12 13:58:49;;;;;;;9.02;1.35;;;;;;;;;;5052006;28;20079;-71
2022/04/12 14:01:14;;;;;;;10.63;1.60;;;;;;;;;;5052046;28;20025;-69
2022/04/12 14:03:40;;;;;;;10.60;1.70;;;;;;;;;;5052041;28;20116;-74
2022/04/12 14:06:05;;;;;;;10.43;1.73;;;;;;;;;;5051977;28;20029;-74
2022/04/12 14:08:32;;;;;;;11.27;1.77;;;;;;;;;;5052056;28;20041;-70
2022/04/12 14:10:59;;;;;;;11.25;1.77;;;;;;;;;;5051890;28;20051;-68
2022/04/12 14:13:25;;;;;;;7.53;2.00;;;;;;;;;;5051850;28;20028;-72
2022/04/12 14:15:52;;;;;;;8.95;1.90;;;;;;;;;;5052053;28;20033;-71
2022/04/12 14:18:18;;;;;;;7.50;1.38;;;;;;;;;;5051605;28;20025;-69
2022/04/12 14:20:44;;;;;;;7.72;1.55;;;;;;;;;;5051505;28;20404;-70
2022/04/12 14:23:10;;;;;;;7.15;1.50;;;;;;;;;;5051663;28;20104;-71
2022/04/12 14:25:39;;;;;;;9.20;1.85;;;;;;;;;;5051834;28;20116;-68
2022/04/12 14:28:10;;;;;;;10.23;1.92;;;;;;;;;;5051549;28;20029;-72
2022/04/12 14:30:37;;;;;;;13.13;1.80;;;;;;;;;;5051706;28;20033;-73
2022/04/12 14:33:03;;;;;;;5.68;1.55;;;;;;;;;;5051662;28;20032;-72
2022/04/12 14:35:29;;;;;;;12.70;1.90;;;;;;;;;;5051855;28;20085;-72
2022/04/12 14:37:55;;;;;;;13.55;1.90;;;;;;;;;;5051068;28;20033;-71
2022/04/12 14:40:20;;;;;;;9.40;1.80;;;;;;;;;;5051316;28;20469;-72
2022/04/12 14:42:46;;;;;;;12.23;1.50;;;;;;;;;;5051396;28;20500;-73